createdAt,value
2019-04-22T00:00:42.481Z,95344.30
2019-04-22T00:06:05.318Z,95340.20
2019-04-22T00:11:27.283Z,95329.70
2019-04-22T00:16:33.547Z,95331.23
2019-04-22T00:21:39.153Z,95330.22
2019-04-22T00:26:48.453Z,95320.52
2019-04-22T00:32:02.061Z,95320.33
2019-04-22T00:37:07.938Z,95319.52
2019-04-22T00:42:16.402Z,95312.10
2019-04-22T00:47:27.944Z,95306.59
2019-04-22T00:52:28.514Z,95305.19
2019-04-22T01:02:48.449Z,95305.36
2019-04-22T01:07:50.032Z,95307.27
2019-04-22T01:12:56.964Z,95301.05
2019-04-22T01:18:05.311Z,95285.03
2019-04-22T01:23:16.276Z,95285.33
2019-04-22T01:28:12.530Z,95280.40
2019-04-22T01:33:14.059Z,95285.66
2019-04-22T01:38:31.434Z,95276.52
2019-04-22T01:43:54.428Z,95280.02
2019-04-22T01:48:54.289Z,95269.73
2019-04-22T01:54:03.940Z,95255.36
2019-04-22T01:58:59.251Z,95254.95
2019-04-22T02:04:23.635Z,95252.41
2019-04-22T02:09:22.537Z,95248.14
2019-04-22T02:14:33.044Z,95237.14
2019-04-22T02:24:47.049Z,95241.16
2019-04-22T02:29:52.348Z,95240.24
2019-04-22T02:35:25.961Z,95240.81
2019-04-22T02:40:09.225Z,95249.34
2019-04-22T02:45:17.863Z,95247.62
2019-04-22T02:50:19.781Z,95238.25
2019-04-22T02:55:34.866Z,95233.66
2019-04-22T03:00:44.382Z,95234.39
2019-04-22T03:05:59.121Z,95239.11
2019-04-22T03:37:07.058Z,95240.60
2019-04-22T03:41:58.536Z,95240.80
2019-04-22T03:47:01.832Z,95251.14
2019-04-22T04:02:24.053Z,95245.47
2019-04-22T04:07:38.374Z,95247.95
2019-04-22T04:12:35.333Z,95254.44
2019-04-22T04:28:22.926Z,95252.91
2019-04-22T04:32:58.960Z,95255.88
2019-04-22T04:37:58.786Z,95247.70
2019-04-22T04:48:30.408Z,95252.93
2019-04-22T04:58:53.905Z,95253.09
2019-04-22T05:03:52.938Z,95246.14
2019-04-22T05:14:12.417Z,95249.22
2019-04-22T05:24:13.178Z,95249.43
2019-04-22T05:29:11.431Z,95254.63
2019-04-22T05:34:25.357Z,95256.36
2019-04-22T05:39:21.508Z,95249.70
2019-04-22T05:44:41.248Z,95247.95
2019-04-22T05:49:42.997Z,95249.95
2019-04-22T05:54:46.806Z,95255.80
2019-04-22T06:00:04.014Z,95257.78
2019-04-22T06:05:06.971Z,95263.27
2019-04-22T06:10:22.616Z,95261.52
2019-04-22T06:15:20.759Z,95269.41
2019-04-22T06:20:33.925Z,95282.69
2019-04-22T06:25:54.976Z,95290.13
2019-04-22T06:30:53.924Z,95285.84
2019-04-22T06:35:50.336Z,95298.80
2019-04-22T06:41:07.341Z,95290.67
2019-04-22T06:46:09.896Z,95289.67
2019-04-22T06:51:17.855Z,95291.50
2019-04-22T06:56:15.857Z,95291.63
2019-04-22T07:01:30.120Z,95299.77
2019-04-22T07:06:42.111Z,95303.36
2019-04-22T07:11:48.279Z,95305.16
2019-04-22T07:16:54.659Z,95315.00
2019-04-22T07:21:57.149Z,95316.37
2019-04-22T07:27:04.630Z,95317.48
2019-04-22T07:32:17.470Z,95308.55
2019-04-22T07:37:28.260Z,95314.16
2019-04-22T07:42:32.667Z,95318.00
2019-04-22T07:47:38.434Z,95316.70
2019-04-22T07:52:38.828Z,95313.13
2019-04-22T07:57:51.797Z,95310.67
2019-04-22T08:02:59.166Z,95300.63
2019-04-22T08:13:14.980Z,95301.11
2019-04-22T08:18:22.060Z,95294.91
2019-04-22T08:23:33.212Z,95304.30
2019-04-22T08:28:40.499Z,95299.42
2019-04-22T08:33:39.906Z,95300.25
2019-04-22T08:38:57.872Z,95290.19
2019-04-22T08:44:07.859Z,95298.66
2019-04-22T08:49:07.185Z,95298.21
2019-04-22T08:54:11.887Z,95300.41
2019-04-22T08:59:22.216Z,95295.45
2019-04-22T09:04:23.371Z,95293.05
2019-04-22T09:09:42.341Z,95290.88
2019-04-22T09:14:45.834Z,95288.14
2019-04-22T09:19:58.321Z,95296.59
2019-04-22T09:24:57.272Z,95294.43
2019-04-22T09:30:09.825Z,95286.60
2019-04-22T09:35:09.683Z,95293.61
2019-04-22T09:45:22.916Z,95294.60
2019-04-22T09:50:36.653Z,95291.48
2019-04-22T09:55:43.051Z,95275.69
2019-04-22T10:01:18.680Z,95283.45
2019-04-22T10:06:22.804Z,95277.73
2019-04-22T10:21:46.295Z,95281.28
2019-04-22T10:26:43.894Z,95277.77
2019-04-22T10:31:55.859Z,95275.34
2019-04-22T10:36:37.877Z,95265.64
2019-04-22T10:41:46.398Z,95257.39
2019-04-22T10:46:52.208Z,95263.05
2019-04-22T10:51:58.359Z,95268.28
2019-04-22T10:57:03.969Z,95270.66
2019-04-22T11:02:09.989Z,95270.83
2019-04-22T11:07:16.947Z,95271.32
2019-04-22T11:12:26.932Z,95275.14
2019-04-22T11:17:31.533Z,95267.79
2019-04-22T11:22:38.784Z,95263.42
2019-04-22T11:27:44.919Z,95270.24
2019-04-22T11:32:50.744Z,95267.00
2019-04-22T11:37:56.819Z,95256.92
2019-04-22T11:43:04.006Z,95260.20
2019-04-22T11:48:11.064Z,95256.35
2019-04-22T11:53:16.808Z,95264.46
2019-04-22T11:58:22.370Z,95244.64
2019-04-22T12:03:29.110Z,95247.35
2019-04-22T12:08:35.739Z,95245.14
2019-04-22T12:13:42.288Z,95248.95
2019-04-22T12:18:49.218Z,95238.73
2019-04-22T12:23:55.075Z,95236.41
2019-04-22T12:29:00.633Z,95231.09
2019-04-22T12:34:07.805Z,95218.73
2019-04-22T12:39:13.817Z,95229.95
2019-04-22T12:44:20.122Z,95224.01
2019-04-22T12:49:28.028Z,95235.45
2019-04-22T12:54:34.865Z,95231.49
2019-04-22T12:59:41.817Z,95230.36
2019-04-22T13:04:47.927Z,95239.44
2019-04-22T13:09:55.109Z,95242.23
2019-04-22T13:15:01.533Z,95252.56
2019-04-22T13:20:11.471Z,95258.18
2019-04-22T13:25:22.883Z,95265.69
2019-04-22T13:30:28.424Z,95253.78
2019-04-22T13:35:34.269Z,95247.47
2019-04-22T13:40:55.832Z,95273.35
2019-04-22T13:45:47.749Z,95264.22
2019-04-22T13:56:18.814Z,95234.84
2019-04-22T14:01:13.325Z,95225.34
2019-04-22T14:06:20.690Z,95222.20
2019-04-22T14:11:39.032Z,95217.82
2019-04-22T14:16:35.310Z,95218.15
2019-04-22T14:21:43.818Z,95224.11
2019-04-22T14:26:58.807Z,95224.16
2019-04-22T14:32:05.244Z,95212.49
2019-04-22T14:37:03.596Z,95215.73
2019-04-22T14:42:29.652Z,95208.56
2019-04-22T14:47:45.455Z,95213.19
2019-04-22T14:52:46.016Z,95204.84
2019-04-22T14:57:32.319Z,95203.94
2019-04-22T15:02:39.533Z,95200.84
2019-04-22T15:07:47.684Z,95192.25
2019-04-22T15:12:56.717Z,95199.09
2019-04-22T15:18:03.053Z,95201.33
2019-04-22T15:23:08.808Z,95208.09
2019-04-22T15:28:15.362Z,95194.47
2019-04-22T15:33:21.456Z,95195.64
2019-04-22T15:38:28.276Z,95202.37
2019-04-22T15:43:36.889Z,95203.53
2019-04-22T15:48:42.159Z,95211.73
2019-04-22T15:53:49.286Z,95234.84
2019-04-22T15:58:55.540Z,95233.64
2019-04-22T16:04:02.748Z,95213.98
2019-04-22T16:09:11.196Z,95220.98
2019-04-22T16:14:27.453Z,95213.48
2019-04-22T16:19:27.311Z,95214.24
2019-04-22T16:24:38.349Z,95210.25
2019-04-22T16:29:45.294Z,95207.55
2019-04-22T16:34:52.438Z,95198.68
2019-04-22T16:39:58.937Z,95194.58
2019-04-22T16:45:07.553Z,95196.42
2019-04-22T16:50:14.075Z,95200.25
2019-04-22T16:55:21.068Z,95197.98
2019-04-22T17:00:27.145Z,95199.25
2019-04-22T17:05:51.701Z,95195.84
2019-04-22T17:10:57.738Z,95185.34
2019-04-22T17:16:04.878Z,95187.97
2019-04-22T17:21:12.416Z,95199.60
2019-04-22T17:26:18.833Z,95193.88
2019-04-22T17:31:26.888Z,95195.81
2019-04-22T17:36:33.959Z,95199.37
2019-04-22T17:41:59.657Z,95191.25
2019-04-22T17:47:10.659Z,95192.97
2019-04-22T17:52:25.100Z,95197.28
2019-04-22T17:57:32.671Z,95207.64
2019-04-22T18:02:32.237Z,95221.48
2019-04-22T18:07:49.616Z,95236.97
2019-04-22T18:13:01.774Z,95241.20
2019-04-22T18:22:56.969Z,95232.78
2019-04-22T18:28:17.329Z,95238.28
2019-04-22T18:33:24.307Z,95241.97
2019-04-22T18:38:41.144Z,95237.23
2019-04-22T18:43:42.019Z,95240.91
2019-04-22T18:48:46.430Z,95240.48
2019-04-22T18:54:06.181Z,95240.34
2019-04-22T18:59:01.089Z,95243.82
2019-04-22T19:04:05.849Z,95250.06
2019-04-22T19:09:53.308Z,95256.92
2019-04-22T19:14:45.022Z,95263.50
2019-04-22T19:19:49.862Z,95262.09
2019-04-22T19:24:47.991Z,95264.30
2019-04-22T19:30:07.463Z,95276.95
2019-04-22T19:35:06.470Z,95280.25
2019-04-22T19:40:20.852Z,95279.77
2019-04-22T19:45:16.036Z,95285.59
2019-04-22T19:50:27.958Z,95294.72
2019-04-22T19:55:39.236Z,95306.04
2019-04-22T20:00:41.790Z,95304.58
2019-04-22T20:06:04.466Z,95301.42
2019-04-22T20:11:12.514Z,95319.23
2019-04-22T20:16:04.198Z,95323.63
2019-04-22T20:21:22.360Z,95322.70
2019-04-22T20:26:24.818Z,95322.09
2019-04-22T20:31:39.175Z,95331.69
2019-04-22T20:36:56.992Z,95334.41
2019-04-22T20:41:49.105Z,95344.87
2019-04-22T20:46:58.877Z,95347.84
2019-04-22T20:52:17.330Z,95343.72
2019-04-22T20:57:09.784Z,95332.53
2019-04-22T21:02:15.325Z,95336.09
2019-04-22T21:07:22.744Z,95329.36
2019-04-22T21:12:29.221Z,95328.56
2019-04-22T21:17:39.099Z,95319.29
2019-04-22T21:22:48.178Z,95315.38
2019-04-22T21:28:04.850Z,95302.09
2019-04-22T21:33:04.153Z,95303.60
2019-04-22T21:38:14.569Z,95299.48
2019-04-22T21:43:25.587Z,95305.66
2019-04-22T21:53:43.392Z,95317.06
2019-04-22T21:58:53.041Z,95322.19
2019-04-22T22:03:55.134Z,95338.59
2019-04-22T22:09:05.845Z,95338.39
2019-04-22T22:14:09.125Z,95336.50
2019-04-22T22:19:20.894Z,95343.98
2019-04-22T22:24:22.599Z,95340.53
2019-04-22T22:29:43.384Z,95346.36
2019-04-22T22:34:32.807Z,95337.98
2019-04-22T22:39:36.616Z,95323.05
2019-04-22T22:44:35.776Z,95318.91
2019-04-22T22:49:59.600Z,95322.19
2019-04-22T22:55:03.872Z,95325.15
2019-04-22T23:00:11.191Z,95310.73
2019-04-22T23:05:29.084Z,95318.17
2019-04-22T23:10:31.696Z,95310.64
2019-04-22T23:15:33.276Z,95301.34
2019-04-22T23:20:27.730Z,95297.20
2019-04-22T23:25:56.702Z,95291.55
2019-04-22T23:31:07.812Z,95293.22
2019-04-22T23:36:23.623Z,95297.36
2019-04-22T23:42:41.721Z,95293.63
2019-04-22T23:46:48.669Z,95293.10
2019-04-22T23:52:02.693Z,95296.66
2019-04-22T23:57:00.336Z,95299.98
